Kings Hill, United Kingdom
Current Conditions -  °F | °C
As of 5:50 AM on Sunday 21 Dec 2014 (Local Time) from EGLC Reporting Station
Rain Showers Rain Showers  
Wind Chill: 42°   Ceiling: 1400
Heat Index: 46°   Visibility: 6mi
Dew Point: 41°   Wind: 9mph
Humidity: 81%   Direction: 240°WSW
Pressure: 30.39"   Gusts: NA
Location:  51.27°N, 0.4°E
Report Text: EGLC 210550Z AUTO 24008KT 9999 -SHRA BKN014/// 08/05 Q1029 RERA
Loading
Personal Weather Stations






























Interactive Weather Map New forecast layout! Learn more

10-Day Weather Forecast

Advertisements
Track Severe Weather on mobile